Jarrettsville, MD (21084)

11:40 AM EDT on April 19, 2018 (GMT -0400)
Jarrettsville | | Change Station
Active Advisory: Freeze Watch

Elev 627 ft 39.60 °N, 76.47 °W | Updated 0 second ago

Overcast
Overcast
51.9 °F
Feels Like 51.9 °F
N
4.0
Wind Variable Wind from NW
Gusts 18.0 mph

Today
High -- | Low -- °F
--% Chance of Precip.
Yesterday
High -- | Low -- °F
Precip. -- in
Pressure 29.73 in
Visibility 9.0 miles
Clouds Mostly Cloudy 5000 ft
Mostly Cloudy 10000 ft
Dew Point 43 °F
Humidity 72%
Rainfall 0.00 in
Snow Depth Not available.
6:22 AM 7:47 PM
Waxing Crescent, 16% visible
METAR KAPG 191458Z 00000KT 9SM BKN050 BKN100 12/04 A2972 RMK AO2A SLP067 60000 T01150041 51019
Pressure 29.73 in
Visibility 9.0 miles
Clouds Mostly Cloudy 5000 ft
Mostly Cloudy 10000 ft
Dew Point 43 °F
Humidity 72%
Rainfall 0.00 in
Snow Depth Not available.
6:22 AM 7:47 PM
Waxing Crescent, 16% visible
METAR KAPG 191458Z 00000KT 9SM BKN050 BKN100 12/04 A2972 RMK AO2A SLP067 60000 T01150041 51019

Get Your Daily Forecast Email!

Thanks for signing up!

Be on the lookout for a verification email in your inbox.

You'll start receiving severe weather alerts in your inbox..

×

10-Day Weather Forecast

Almanac

Astronomy

Apr. 19, 2018 Rise Set
Actual Time
Civil Twilight
Nautical Twilight
Astronomical Twilight
Moon
Length of Visible Light
Length of Day
Tomorrow will be .
, % of the Moon is Illuminated

Today's Extremes

State Highs State Lows

Community

WunderPhotos

Category 6

Welcome to Category 6. This is the collective home for Weather Underground's featured writeups by Dr. Jeff Masters (right), Bob Henson (left), Chris Burt, and other regular contributors.

Nearby

Air Quality

  Air Quality AQ Index Pollutant
Not available.

Snow Depth

Station Depth Elevation

Earthquake Activity

City Distance Mag. Time & Date
Minimum magnitude displayed is 2.5.

Coastal Water Temperatures

Place Temperature

Stations

Nearby Weather Stations

Station Location Temp. Windchill Dew Point Humidity Wind Precip. Elev Updated Type
                   

Watches & Warnings

Freeze Watch
Issued: 10:32 AM EDT Apr. 19, 2018 – National Weather Service

... Freeze watch remains in effect from late tonight through
Friday morning...

* temperatures... 32 degrees or lower.

* Impacts... frost and freeze conditions may damage sensitive
vegetation. Take steps now to protect tender plants from the
cold.

Precautionary/preparedness actions...

A freeze watch means sub-freezing temperatures are possible.
These conditions could kill crops and other sensitive vegetation.



Dhof